map of JUJ home
JUJ - Airport
Location
City:  San Salvador de Jujuy, Jujuy, Argentina
Near (Alt.):Jujuy
Name:Gobernador Horacio Guzmán International Airport
ICAO:SASJ
IATA:JUJ

Details
Type:Airport (Aerodrome, Airfield)
Use:Public/Civil, International (customs port of entry)
Latitude:24°23'34"S (-24.392777)
Longitude:65°05'52"W (-65.097777)
Datum:WGS 1984
Elevation:3019 ft (920 m)
Variation:8.18°W (WMM2015 magnetic declination)
-0.20° annual change
Runways:1
Longest:9698 × 131 ft (2956 × 40 m), paved

Time
Time Zone:UTC-3
Local Time:

Weather
METAR:SASJ 161500Z 14003KT 8000 SCT008 OVC060 23/21 Q1015
TAF:SASJ 161100Z 1612/1712 34005KT 5000 DZ BR BKN003 OVC012 FEW040CB TX31/1618Z TN18/1710Z
BECMG 1620/1622 02005KT 9999 SCT025

Related Locations
Nearby:
Farthest:XIN: 12388 mi / 19936 km
Xingning, 44, CN

Find:

   beyond  
but within

Other Information
Maps:
NOTAMs:
Links:
Sources:

  
  • flag of Argentina
  • flag of Jujuy
  

Sectional Chart

Flight Planning
at skyvector.com

Satellite Image

Google Maps Satellite view

 

Copyright © 2004-2018 Karl L. Swartz. All rights reserved.
The Great Circle Mapper name and logo are trademarks of the Great Circle Mapper.
All other trademarks mentioned herein belong to their respective owners.
Please see credits for attibutions and further copyright information.

  Follow gcmap on Facebook Follow gcmap on Twitter Follow gcmap on Google+ GCmap on LinkedIn

hCard Microformat

Geo Microformat